Monday, December 18, 2017, 5:23 PM EST
Back to Local

KDUJ, Du Bois-jefferson County

Location: Reynoldsville, PA, United States Lat: 41.183
Local Time: 5:23 PM EST (22:23 GMT) Lon: -78.883
Time Zone: US/Eastern Elev: 1820 ft

Show me the last for .
Show Decoded

2017-12-18 16:53 METAR KDUJ 182153Z AUTO 25012KT 1SM BR OVC002 02/02 A2991 RMK AO2 UPB28E41
                 SLP144 P0001 T00220017 =
2017-12-18 16:51 METAR KDUJ 182151Z AUTO 24013KT 3/4SM BR OVC002 02/02 A2991 RMK AO2 UPB28E41
                 P0001 =
2017-12-18 15:53 METAR KDUJ 182053Z AUTO 23011KT 1/4SM FG OVC002 02/01 A2990 RMK AO2 SLP140
                 T00220011 56008 =
2017-12-18 15:31 METAR KDUJ 182031Z AUTO 22008KT 1/4SM FG OVC002 02/01 A2990 RMK AO2 T00220011 =
2017-12-18 14:53 METAR KDUJ 181953Z AUTO 23008KT 1/2SM FG OVC002 02/01 A2990 RMK AO2 SLP141
                 T00220011 =
2017-12-18 14:41 METAR KDUJ 181941Z AUTO 23011KT 3/4SM BR OVC003 02/01 A2991 RMK AO2 T00220011 =
2017-12-18 14:29 METAR KDUJ 181929Z AUTO 23009KT 1 1/4SM BR OVC004 02/01 A2991 RMK AO2 T00220006
                 =
2017-12-18 14:21 METAR KDUJ 181921Z AUTO 23009KT 2SM BR OVC004 02/01 A2990 RMK AO2 T00220006 =
2017-12-18 14:04 METAR KDUJ 181904Z AUTO 23010KT 4SM BR OVC004 02/01 A2990 RMK AO2 T00220006 =
2017-12-18 13:53 METAR KDUJ 181853Z AUTO 22010KT 4SM BR OVC005 02/01 A2991 RMK AO2 SLP143
                 T00220006 =
2017-12-18 12:53 METAR KDUJ 181753Z AUTO 24007KT 6SM BR OVC006 02/00 A2993 RMK AO2 SLP149
                 T00220000 10022 20011 58025 =
2017-12-18 11:53 METAR KDUJ 181653Z AUTO 23009KT 5SM BR OVC006 02/00 A2997 RMK AO2 SLP164
                 T00170000 =
2017-12-18 10:53 METAR KDUJ 181553Z AUTO 23009KT 6SM BR OVC006 02/00 A3000 RMK AO2 SLP174
                 T00170000 =
2017-12-18 09:53 METAR KDUJ 181453Z AUTO 22006KT 6SM BR OVC008 02/M01 A3001 RMK AO2 SLP176
                 T00171006 56004 =
2017-12-18 09:26 METAR KDUJ 181426Z AUTO 22006KT 6SM BR OVC009 02/M01 A3001 RMK AO2 T00171006 =
2017-12-18 08:53 METAR KDUJ 181353Z AUTO 21005KT 6SM BR OVC010 01/M01 A3001 RMK AO2 SLP176
                 T00111006 =
2017-12-18 08:37 METAR KDUJ 181337Z AUTO 22006KT 6SM BR BKN011 BKN040 OVC047 01/M01 A3001 RMK AO2
                 T00111006 =
2017-12-18 07:53 METAR KDUJ 181253Z AUTO 22006KT 6SM BR OVC046 01/M01 A3001 RMK AO2 SLP177
                 T00111011 =
2017-12-18 07:07 METAR KDUJ 181207Z AUTO 22006KT 8SM BKN031 BKN035 OVC049 01/M01 A3002 RMK AO2
                 T00111011 =
2017-12-18 06:53 METAR KDUJ 181153Z AUTO 22006KT 8SM OVC029 01/M01 A3002 RMK AO2 SLP181 70001
                 T00111011 10017 20006 56000 =
2017-12-18 05:53 METAR KDUJ 181053Z AUTO 23007KT 7SM OVC027 01/M01 A3002 RMK AO2 SLP181 T00111011
                 =
2017-12-18 04:53 METAR KDUJ 180953Z AUTO 22007KT 7SM OVC025 01/M01 A3002 RMK AO2 SLP180 T00111011
                 =
2017-12-18 03:53 METAR KDUJ 180853Z AUTO 22004KT 5SM BR BKN028 BKN033 OVC046 01/M01 A3002 RMK AO2
                 SLP181 T00111006 55007 =
2017-12-18 03:33 METAR KDUJ 180833Z AUTO 22005KT 7SM SCT009 OVC026 01/M01 A3002 RMK AO2 T00111006
                 =
2017-12-18 02:53 METAR KDUJ 180753Z AUTO 23006KT 7SM BKN012 OVC025 01/M01 A3002 RMK AO2 SLP181
                 T00111006 =
2017-12-18 02:38 METAR KDUJ 180738Z AUTO 24006KT 7SM BKN012 BKN034 OVC050 01/M01 A3002 RMK AO2
                 T00111006 =
2017-12-18 01:53 METAR KDUJ 180653Z AUTO 22006KT 5SM BR BKN055 OVC070 01/00 A3004 RMK AO2 SLP187
                 T00110000 =
2017-12-18 00:53 METAR KDUJ 180553Z AUTO 22004KT 5SM BR OVC037 01/00 A3004 RMK AO2 SLP189 60001
                 T00110000 10017 20006 58008 =
2017-12-18 00:11 METAR KDUJ 180511Z AUTO 22003KT 5SM BR OVC036 02/01 A3005 RMK AO2 T00170006 =
2017-12-17 23:53 METAR KDUJ 180453Z AUTO 00000KT 2 1/2SM BR OVC034 01/01 A3006 RMK AO2 SLP198
                 T00110006 400171061 =
2017-12-17 23:40 METAR KDUJ 180440Z AUTO 20003KT 4SM BR FEW022 OVC034 02/01 A3006 RMK AO2
                 T00170006 =
2017-12-17 23:30 METAR KDUJ 180430Z AUTO 00000KT 2SM BR FEW017 SCT024 OVC032 01/01 A3006 RMK AO2
                 T00110006 =
2017-12-17 23:08 METAR KDUJ 180408Z AUTO 22005KT 1SM BR SCT004 BKN015 OVC024 01/00 A3007 RMK AO2
                 T00110000 =
2017-12-17 23:01 METAR KDUJ 180401Z AUTO 23004KT 3/4SM BR BKN004 OVC015 01/00 A3007 RMK AO2 CIG
                 002V007 T00060000 =
2017-12-17 22:53 METAR KDUJ 180353Z AUTO 24005KT 1 3/4SM BR OVC005 01/00 A3007 RMK AO2 UPB23E32
                 SLP200 P0001 T00110000 =
2017-12-17 22:34 METAR KDUJ 180334Z AUTO 25005KT 2 1/2SM BR OVC005 01/M01 A3007 RMK AO2 UPB23E32
                 P0000 T00111006 =
2017-12-17 21:53 METAR KDUJ 180253Z AUTO 22007KT 9SM OVC008 02/M01 A3007 RMK AO2 SLP201 T00171011
                 50000 =
2017-12-17 21:39 METAR KDUJ 180239Z AUTO 21004KT 9SM BKN008 OVC018 02/M01 A3006 RMK AO2 T00171011
                 =
2017-12-17 20:53 METAR KDUJ 180153Z AUTO 21003KT 8SM SCT012 BKN020 OVC080 01/M02 A3008 RMK AO2
                 SLP207 T00111022 =
2017-12-17 20:48 METAR KDUJ 180148Z AUTO 21004KT 8SM SCT012 BKN020 OVC080 01/M03 A3008 RMK AO2 =
2017-12-17 19:53 METAR KDUJ 180053Z AUTO VRB03KT 10SM OVC100 02/M03 A3007 RMK AO2 SLP201
                 T00171033 =
2017-12-17 18:53 METAR KDUJ 172353Z AUTO 15003KT 9SM BKN110 01/M03 A3007 RMK AO2 SLP204 I6002
                 T00111033 10011 21011 58004 =
2017-12-17 17:53 METAR KDUJ 172253Z AUTO 00000KT 9SM BKN110 01/M03 A3009 RMK AO2 SLP211 T00111033
                 =

Support USWX by starting your Amazon purchase here.